Time;durP1;ratioP1;P1;durP2;ratioP2;P2;SDS_P1;SDS_P2;PMS_P1;PMS_P2;Temp;Humidity;BMP_temperature;BMP_pressure;BME280_temperature;BME280_humidity;BME280_pressure;Samples;Min_cycle;Max_cycle;Signal;HPM_P1;HPM_P2
2023/08/11 00:01:17;;;;;;;5.30;3.10;;;;;;;22.14;92.65;99204.89;79481;1301;3011842;-69
2023/08/11 00:03:45;;;;;;;6.20;3.40;;;;;;;22.28;91.20;99200.77;78190;1300;3027424;-72
2023/08/11 00:06:13;;;;;;;9.20;3.80;;;;;;;22.10;91.74;99197.79;79378;1295;3013237;-69
2023/08/11 00:08:40;;;;;;;5.80;4.30;;;;;;;22.10;91.73;99196.08;79487;1295;3011543;-70
2023/08/11 00:11:08;;;;;;;5.00;3.00;;;;;;;21.90;92.32;99192.15;78213;1300;3049164;-69
2023/08/11 00:13:35;;;;;;;12.10;3.90;;;;;;;22.05;92.21;99191.23;79463;1294;3012974;-70
2023/08/11 00:16:03;;;;;;;9.10;6.80;;;;;;;22.21;91.67;99186.92;79368;1297;3011859;-71
2023/08/11 00:18:31;;;;;;;8.10;6.60;;;;;;;22.22;91.59;99183.22;78228;1299;3052352;-70
2023/08/11 00:20:58;;;;;;;9.90;5.70;;;;;;;22.01;92.02;99182.73;79469;1295;3013462;-71
2023/08/11 00:23:25;;;;;;;6.40;3.60;;;;;;;21.78;93.51;99174.52;79403;1295;3013479;-69
2023/08/11 00:25:53;;;;;;;9.80;4.60;;;;;;;22.13;92.63;99169.64;78234;1295;3049176;-70
2023/08/11 00:28:19;;;;;;;8.80;6.50;;;;;;;22.35;90.87;99162.18;79493;1297;3013754;-70
2023/08/11 00:30:46;;;;;;;8.10;5.70;;;;;;;22.13;91.55;99161.34;79398;1295;3011465;-69
2023/08/11 00:33:13;;;;;;;12.30;5.00;;;;;;;21.87;93.24;99156.56;78278;1300;3025940;-71
2023/08/11 00:35:43;;;;;;;5.90;2.60;;;;;;;21.70;95.02;99155.80;79402;1295;3012979;-69
2023/08/11 00:38:11;;;;;;;8.20;3.10;;;;;;;22.07;93.51;99154.50;78896;1295;3011768;-69
2023/08/11 00:40:38;;;;;;;4.70;2.80;;;;;;;22.31;91.45;99147.41;79495;1295;3013352;-71
2023/08/11 00:43:04;;;;;;;8.60;3.30;;;;;;;22.20;91.35;99144.99;79406;1295;3011987;-70
2023/08/11 00:45:33;;;;;;;4.10;2.70;;;;;;;21.99;92.09;99148.74;78243;1298;3026697;-69
2023/08/11 00:48:00;;;;;;;5.00;2.50;;;;;;;21.81;93.22;99157.44;79545;1300;3013023;-69
2023/08/11 00:50:30;;;;;;;6.60;3.70;;;;;;;22.08;92.26;99167.16;78871;1297;3011595;-70
2023/08/11 00:53:00;;;;;;;13.00;6.00;;;;;;;22.19;90.84;99164.14;79413;1297;3013033;-72
2023/08/11 00:55:29;;;;;;;7.60;4.90;;;;;;;22.03;91.47;99156.36;78913;1295;3013195;-69
2023/08/11 00:57:56;;;;;;;8.60;5.40;;;;;;;21.84;92.08;99157.54;79382;1295;3013423;-69
2023/08/11 01:00:24;;;;;;;7.90;4.10;;;;;;;21.84;92.44;99157.48;79388;1295;3011684;-70
2023/08/11 01:02:52;;;;;;;6.30;4.00;;;;;;;22.35;90.72;99163.65;78240;1297;3051336;-69
2023/08/11 01:05:19;;;;;;;8.00;3.70;;;;;;;22.81;88.82;99164.58;79450;1298;3013786;-70
2023/08/11 01:07:58;;;;;;;8.50;4.40;;;;;;;22.85;87.68;99165.19;79352;1300;3013064;-70
2023/08/11 01:10:50;;;;;;;6.00;3.70;;;;;;;22.68;87.62;99176.64;78273;1301;3052488;-70
2023/08/11 01:13:21;;;;;;;4.70;2.90;;;;;;;22.44;88.51;99182.18;78177;1297;3056707;-70
2023/08/11 01:15:58;;;;;;;3.30;2.30;;;;;;;22.30;89.41;99182.23;79408;1295;3013396;-71
2023/08/11 01:18:28;;;;;;;7.10;2.50;;;;;;;22.81;87.86;99183.45;78229;1295;3052546;-70
2023/08/11 01:21:00;;;;;;;8.60;2.90;;;;;;;23.22;86.08;99184.04;79309;1295;3011563;-70
2023/08/11 01:23:28;;;;;;;7.20;3.30;;;;;;;23.17;85.45;99188.73;78292;1298;3052392;-69
2023/08/11 01:25:55;;;;;;;5.60;3.10;;;;;;;22.95;86.36;99191.19;79416;1298;3013545;-69
2023/08/11 01:28:23;;;;;;;5.70;3.20;;;;;;;22.74;87.44;99184.69;79524;1295;3013461;-70
2023/08/11 01:30:51;;;;;;;5.60;2.20;;;;;;;22.56;88.28;99185.69;78285;1295;3058465;-68
2023/08/11 01:33:18;;;;;;;4.00;2.40;;;;;;;22.99;87.19;99176.05;79410;1295;3013684;-75
2023/08/11 01:35:45;;;;;;;8.20;3.50;;;;;;;23.42;85.10;99176.01;79637;1301;3011836;-77
2023/08/11 01:38:13;;;;;;;7.50;3.60;;;;;;;23.35;84.24;99176.12;78235;1299;3026715;-75
2023/08/11 01:40:39;;;;;;;6.10;4.00;;;;;;;23.13;84.75;99166.02;79480;1298;3013754;-77
2023/08/11 01:43:07;;;;;;;8.80;4.60;;;;;;;22.90;85.38;99162.46;79460;1300;3013022;-78
2023/08/11 01:45:35;;;;;;;7.90;4.00;;;;;;;22.66;86.23;99155.02;78223;1299;3056231;-75
2023/08/11 01:48:02;;;;;;;10.70;3.90;;;;;;;22.99;85.88;99156.87;79436;1300;3018662;-76
2023/08/11 01:50:28;;;;;;;8.20;4.80;;;;;;;23.23;84.57;99165.08;79507;1295;3012712;-76
2023/08/11 01:52:58;;;;;;;8.40;5.00;;;;;;;23.16;84.63;99173.71;78194;1298;3051962;-73
2023/08/11 01:55:26;;;;;;;10.30;6.20;;;;;;;23.01;85.17;99177.54;79503;1296;3011716;-77
2023/08/11 01:57:53;;;;;;;9.50;6.40;;;;;;;22.77;85.80;99175.59;79367;1295;3011664;-74
2023/08/11 02:00:21;;;;;;;6.70;4.40;;;;;;;22.53;86.71;99176.20;78317;1295;3054949;-76
2023/08/11 02:02:48;;;;;;;9.70;5.50;;;;;;;22.84;86.32;99174.52;79510;1295;3012914;-75
2023/08/11 02:05:15;;;;;;;10.10;6.00;;;;;;;23.15;84.94;99183.48;79455;1295;3012862;-75
2023/08/11 02:07:47;;;;;;;14.10;7.20;;;;;;;23.09;84.80;99176.89;78350;1299;3052358;-76
2023/08/11 02:10:13;;;;;;;17.10;8.70;;;;;;;22.80;85.67;99164.98;79491;1298;3011297;-75
2023/08/11 02:12:42;;;;;;;11.90;8.70;;;;;;;22.53;87.05;99159.36;79054;1296;3013150;-76
2023/08/11 02:18:04;;;;;;;10.50;6.40;;;;;;;22.70;87.33;99153.14;80345;1300;3013135;-77
2023/08/11 02:20:32;;;;;;;12.60;8.00;;;;;;;23.04;85.45;99160.68;79254;1302;3012921;-78
2023/08/11 02:22:59;;;;;;;10.90;7.80;;;;;;;22.82;85.73;99163.50;79313;1304;3011681;-75
2023/08/11 02:25:27;;;;;;;15.20;9.40;;;;;;;22.65;86.62;99171.77;78160;1302;3053011;-74
2023/08/11 02:27:54;;;;;;;17.40;9.30;;;;;;;22.38;87.89;99181.30;79394;1300;3018458;-77
2023/08/11 02:30:21;;;;;;;11.90;6.50;;;;;;;22.26;88.45;99180.48;77152;1303;3066247;-77
2023/08/11 02:32:53;;;;;;;12.70;6.90;;;;;;;22.74;87.04;99175.17;78190;1300;3050195;-72
2023/08/11 02:35:21;;;;;;;13.00;8.00;;;;;;;23.10;85.42;99169.73;79433;1300;3013177;-76
2023/08/11 02:37:49;;;;;;;14.60;8.60;;;;;;;23.09;85.24;99169.74;78228;1300;3027765;-74
2023/08/11 02:40:19;;;;;;;17.20;9.50;;;;;;;22.89;85.58;99167.06;79417;1300;3011693;-76
2023/08/11 02:42:54;;;;;;;15.60;10.30;;;;;;;22.54;86.86;99149.69;78163;1296;3069426;-78
2023/08/11 02:45:23;;;;;;;11.60;7.10;;;;;;;22.06;89.84;99130.48;78200;1300;3050917;-76
2023/08/11 02:47:50;;;;;;;14.80;7.20;;;;;;;22.13;90.44;99101.67;79430;1296;3013284;-76
2023/08/11 02:50:17;;;;;;;16.10;9.50;;;;;;;22.24;90.10;99102.04;79454;1296;3011455;-75
2023/08/11 02:52:47;;;;;;;14.10;10.70;;;;;;;22.42;89.57;99135.63;78177;1300;3049898;-76
2023/08/11 02:55:13;;;;;;;20.70;12.60;;;;;;;22.33;89.55;99153.27;79467;1300;3013244;-76
2023/08/11 02:57:40;;;;;;;13.20;7.20;;;;;;;22.22;90.39;99148.27;79376;1303;3011583;-75
2023/08/11 03:00:15;;;;;;;13.40;8.10;;;;;;;22.66;89.39;99135.73;78284;1295;3027187;-75
2023/08/11 03:02:46;;;;;;;16.80;8.30;;;;;;;23.03;87.68;99134.13;78972;1300;3011668;-76
2023/08/11 03:05:14;;;;;;;18.20;11.80;;;;;;;22.96;88.06;99166.36;79445;1295;3011850;-73
2023/08/11 04:36:35;;;;;;;10.30;6.50;;;;;;;20.93;100.00;99217.58;80404;1299;3013200;-71
2023/08/11 04:39:03;;;;;;;12.20;7.30;;;;;;;21.77;100.00;99221.27;79246;1302;3013987;-71
2023/08/11 04:41:30;;;;;;;19.20;8.40;;;;;;;22.85;98.85;99227.45;79425;1305;3011714;-74
2023/08/11 04:43:59;;;;;;;16.80;11.50;;;;;;;23.21;93.76;99221.66;78238;1302;3051961;-71
2023/08/11 04:46:26;;;;;;;19.20;13.30;;;;;;;23.31;93.39;99217.03;79245;1305;3013513;-73
2023/08/11 04:48:56;;;;;;;19.30;12.20;;;;;;;23.23;93.32;99213.98;76804;1299;3013218;-72
2023/08/11 04:51:22;;;;;;;15.70;8.90;;;;;;;23.04;93.51;99214.80;79402;1301;3013148;-72
2023/08/11 04:53:49;;;;;;;18.60;10.90;;;;;;;23.32;92.35;99215.27;79377;1301;3012123;-72
2023/08/11 04:56:17;;;;;;;17.20;10.80;;;;;;;23.52;91.34;99211.05;78211;1301;3028718;-72
2023/08/11 04:58:44;;;;;;;24.60;15.30;;;;;;;23.42;91.39;99202.95;79482;1301;3012697;-68
2023/08/11 05:01:10;;;;;;;31.70;17.20;;;;;;;23.25;92.25;99192.54;79532;1298;3011536;-72
2023/08/11 05:03:39;;;;;;;16.40;11.20;;;;;;;22.98;94.05;99185.43;78387;1295;3048698;-72
2023/08/11 05:06:05;;;;;;;23.20;14.50;;;;;;;23.35;92.46;99183.61;79555;1296;3018827;-72
2023/08/11 05:08:32;;;;;;;27.60;18.20;;;;;;;23.72;90.39;99178.70;79665;1296;3011852;-73
2023/08/11 05:11:00;;;;;;;29.40;18.40;;;;;;;23.68;89.01;99183.44;78310;1295;3029592;-71
2023/08/11 05:13:28;;;;;;;20.60;16.60;;;;;;;23.43;89.91;99179.49;79434;1298;3013233;-73
2023/08/11 05:15:54;;;;;;;23.90;16.00;;;;;;;23.45;90.21;99175.31;79581;1301;3011376;-70
2023/08/11 05:18:22;;;;;;;18.90;9.50;;;;;;;23.47;90.59;99176.17;78459;1295;3052345;-67
2023/08/11 05:20:48;;;;;;;16.50;9.90;;;;;;;24.07;88.61;99178.71;79646;1298;3012929;-68
2023/08/11 05:23:15;;;;;;;16.00;11.20;;;;;;;24.59;85.23;99176.34;79518;1298;3011664;-67
2023/08/11 05:25:43;;;;;;;17.80;12.20;;;;;;;24.72;84.46;99170.95;78512;1295;3026993;-65
2023/08/11 05:28:09;;;;;;;17.60;12.40;;;;;;;24.61;84.03;99172.73;79542;1298;3018745;-69
2023/08/11 05:30:37;;;;;;;17.90;12.80;;;;;;;24.54;84.28;99170.16;79580;1295;3011672;-66
2023/08/11 05:33:05;;;;;;;13.70;8.50;;;;;;;24.42;84.42;99170.91;78612;1295;3051301;-67
2023/08/11 05:35:31;;;;;;;16.90;10.40;;;;;;;24.80;83.26;99167.83;79528;1296;3018820;-69
2023/08/11 05:37:59;;;;;;;18.70;12.30;;;;;;;25.26;81.51;99154.42;79550;1298;3011502;-68
2023/08/11 05:40:27;;;;;;;24.60;14.10;;;;;;;25.31;80.73;99144.92;78268;1295;3027801;-69
2023/08/11 05:42:54;;;;;;;20.60;14.00;;;;;;;25.23;80.60;99132.88;79540;1295;3013914;-67
2023/08/11 05:45:21;;;;;;;21.10;15.20;;;;;;;25.02;80.85;99136.39;79568;1296;3011909;-69
2023/08/11 05:47:49;;;;;;;18.10;14.10;;;;;;;24.83;81.82;99137.65;78329;1295;3049423;-67
2023/08/11 05:50:15;;;;;;;13.90;9.40;;;;;;;24.79;82.30;99136.80;79517;1301;3019516;-65
2023/08/11 05:52:42;;;;;;;17.40;10.90;;;;;;;25.18;80.51;99133.21;79648;1296;3012801;-65
2023/08/11 05:55:10;;;;;;;15.60;12.40;;;;;;;25.53;79.10;99139.98;78376;1295;3026743;-71
2023/08/11 05:57:36;;;;;;;19.60;12.40;;;;;;;25.64;78.23;99141.49;79532;1301;3013769;-67
2023/08/11 06:00:04;;;;;;;21.60;12.30;;;;;;;25.61;78.12;99146.78;79592;1301;3011814;-70
2023/08/11 06:02:41;;;;;;;17.00;12.70;;;;;;;25.43;78.25;99155.56;78324;1295;3051265;-64
2023/08/11 06:05:07;;;;;;;15.10;11.00;;;;;;;25.30;78.95;99163.86;79537;1295;3016250;-63
2023/08/11 06:07:34;;;;;;;10.50;8.40;;;;;;;25.23;79.30;99162.65;79448;1301;3011946;-64
2023/08/11 06:10:02;;;;;;;15.30;10.10;;;;;;;25.67;78.50;99168.73;78412;1298;3026152;-71
2023/08/11 06:12:30;;;;;;;15.80;9.80;;;;;;;26.09;76.09;99171.61;79579;1298;3012856;-72
2023/08/11 06:14:57;;;;;;;17.90;10.90;;;;;;;26.12;75.08;99173.67;79618;1298;3011801;-67
2023/08/11 06:17:25;;;;;;;16.70;11.30;;;;;;;25.88;75.57;99166.23;78502;1295;3053055;-66
2023/08/11 06:19:51;;;;;;;16.20;12.20;;;;;;;25.68;76.17;99167.67;79579;1294;3018372;-70
2023/08/11 06:22:18;;;;;;;20.50;12.10;;;;;;;25.50;76.88;99166.61;79655;1298;3011914;-67
2023/08/11 06:24:46;;;;;;;15.60;11.90;;;;;;;25.35;77.33;99162.08;78400;1298;3028927;-72
2023/08/11 06:27:12;;;;;;;10.60;8.20;;;;;;;25.14;78.42;99167.67;79735;1298;3012850;-65
2023/08/11 06:29:39;;;;;;;16.80;10.40;;;;;;;25.61;77.29;99158.60;79589;1295;3013666;-66
2023/08/11 06:32:07;;;;;;;16.00;11.00;;;;;;;26.14;74.87;99156.89;78379;1295;3026967;-70
2023/08/11 06:34:34;;;;;;;14.30;11.40;;;;;;;26.18;74.00;99153.34;79541;1295;3019578;-72
2023/08/11 06:37:00;;;;;;;19.80;12.70;;;;;;;26.14;74.24;99145.42;79786;1298;3011434;-71
2023/08/11 06:39:28;;;;;;;23.10;12.80;;;;;;;25.96;74.30;99141.98;78575;1298;3027617;-69
2023/08/11 06:41:54;;;;;;;17.20;13.40;;;;;;;25.82;74.97;99126.31;79614;1298;3013713;-68
2023/08/11 06:44:44;;;;;;;19.50;12.60;;;;;;;25.59;75.79;99113.09;78337;1298;3069326;-66
2023/08/11 06:47:10;;;;;;;18.70;12.20;;;;;;;25.53;76.66;99105.94;79615;1295;3013317;-71
2023/08/11 06:49:37;;;;;;;14.80;9.30;;;;;;;25.46;76.96;99104.49;79652;1295;3011759;-73
2023/08/11 06:52:05;;;;;;;16.20;10.70;;;;;;;25.92;75.47;99096.30;78369;1298;3053647;-70
2023/08/11 06:54:33;;;;;;;16.50;12.10;;;;;;;26.28;73.78;99093.55;79632;1295;3018504;-71
2023/08/11 06:57:03;;;;;;;20.00;12.80;;;;;;;26.36;73.05;99085.64;79602;1295;3011742;-65
2023/08/11 06:59:31;;;;;;;18.80;13.90;;;;;;;26.31;72.89;99084.52;78298;1295;3067659;-72
2023/08/11 07:01:58;;;;;;;18.30;13.10;;;;;;;26.19;72.93;99082.97;79596;1296;3013417;-70
2023/08/11 07:04:24;;;;;;;18.70;13.90;;;;;;;26.11;73.32;99088.91;79602;1294;3011605;-68
2023/08/11 07:06:54;;;;;;;18.60;14.30;;;;;;;25.91;73.76;99091.36;78449;1298;3027999;-70
2023/08/11 07:09:21;;;;;;;21.20;15.30;;;;;;;25.75;74.92;99090.89;79758;1298;3013217;-67
2023/08/11 07:11:47;;;;;;;20.70;14.00;;;;;;;25.61;75.75;99090.00;79609;1296;3013189;-69
2023/08/11 07:14:15;;;;;;;16.40;10.40;;;;;;;25.50;76.39;99098.84;78295;1296;3067939;-71
2023/08/11 07:16:42;;;;;;;16.10;11.90;;;;;;;26.02;75.05;99098.31;79612;1298;3013563;-67
2023/08/11 07:19:08;;;;;;;19.50;13.30;;;;;;;26.53;72.90;99102.08;79360;1296;3011931;-70
2023/08/11 07:21:36;;;;;;;24.70;15.00;;;;;;;26.57;72.29;99109.66;78710;1298;3029035;-70
2023/08/11 07:24:03;;;;;;;21.70;13.50;;;;;;;26.42;72.33;99115.48;79590;1298;3013486;-74
2023/08/11 07:26:29;;;;;;;20.50;14.10;;;;;;;26.27;72.58;99110.46;79666;1298;3011471;-68
2023/08/11 07:28:57;;;;;;;22.50;13.90;;;;;;;26.06;72.90;99108.44;78307;1298;3025501;-70
2023/08/11 07:31:24;;;;;;;16.80;14.40;;;;;;;25.81;73.72;99099.69;79566;1296;3012961;-74
2023/08/11 07:33:50;;;;;;;19.20;14.50;;;;;;;25.64;74.59;99090.63;79584;1298;3013010;-71
2023/08/11 07:36:20;;;;;;;19.80;14.30;;;;;;;25.53;74.87;99098.29;78481;1295;3025845;-67
2023/08/11 07:38:46;;;;;;;13.00;9.50;;;;;;;25.44;75.47;99105.85;79730;1298;3012998;-69
2023/08/11 07:41:13;;;;;;;16.00;11.40;;;;;;;25.90;74.60;99098.33;79647;1298;3013050;-71
2023/08/11 07:43:41;;;;;;;23.70;12.60;;;;;;;26.32;72.99;99097.24;78445;1295;3068335;-72
2023/08/11 07:46:07;;;;;;;14.50;11.90;;;;;;;26.41;72.69;99093.45;79553;1296;3013714;-68
2023/08/11 07:48:34;;;;;;;19.50;13.50;;;;;;;26.35;72.53;99090.58;79609;1295;3011417;-67
2023/08/11 07:51:02;;;;;;;18.80;13.50;;;;;;;26.16;72.99;99090.25;78444;1298;3026277;-68
2023/08/11 07:53:31;;;;;;;20.90;14.20;;;;;;;26.01;73.35;99079.94;79717;1298;3013423;-68
2023/08/11 07:56:00;;;;;;;22.10;14.70;;;;;;;25.84;74.06;99073.75;79050;1298;3013138;-72
2023/08/11 07:58:27;;;;;;;20.50;13.30;;;;;;;25.71;74.67;99076.80;79857;1298;3018252;-68
2023/08/11 08:00:53;;;;;;;20.00;13.20;;;;;;;25.61;74.66;99085.53;79461;1298;3011669;-71
2023/08/11 08:03:21;;;;;;;11.60;8.70;;;;;;;25.54;75.00;99083.52;78432;1296;3029634;-70
2023/08/11 08:05:48;;;;;;;13.50;10.10;;;;;;;26.12;73.83;99074.53;79809;1295;3018450;-70
2023/08/11 08:08:14;;;;;;;14.70;10.80;;;;;;;26.62;71.34;99071.41;79621;1298;3012844;-70
2023/08/11 08:10:42;;;;;;;20.20;11.90;;;;;;;26.69;70.60;99071.38;78499;1298;3026421;-72
2023/08/11 08:13:08;;;;;;;15.90;12.60;;;;;;;26.51;70.87;99073.27;79776;1296;3018179;-73
2023/08/11 08:15:35;;;;;;;16.70;12.60;;;;;;;26.35;71.46;99078.82;79668;1295;3012438;-71
2023/08/11 08:18:04;;;;;;;15.80;13.30;;;;;;;26.10;72.21;99082.66;78511;1295;3027007;-69
2023/08/11 08:20:33;;;;;;;20.50;13.00;;;;;;;25.83;73.48;99077.63;79694;1295;3015013;-67
2023/08/11 08:23:02;;;;;;;15.60;12.30;;;;;;;25.71;73.54;99069.23;78357;1298;3050029;-68
2023/08/11 08:25:28;;;;;;;17.50;11.50;;;;;;;25.59;74.04;99066.70;79635;1298;3013086;-70
2023/08/11 08:27:55;;;;;;;14.10;11.40;;;;;;;25.47;73.95;99064.61;79691;1298;3011779;-68
2023/08/11 08:30:23;;;;;;;12.50;7.70;;;;;;;25.43;74.12;99069.77;78363;1298;3051372;-72
2023/08/11 08:32:50;;;;;;;14.90;9.00;;;;;;;25.91;73.27;99070.83;79626;1296;3013218;-68
2023/08/11 08:35:16;;;;;;;14.50;10.10;;;;;;;26.41;71.65;99067.34;79641;1298;3011429;-70
2023/08/11 08:37:44;;;;;;;16.30;10.40;;;;;;;26.40;70.82;99078.45;78607;1298;3027642;-69
2023/08/11 08:40:12;;;;;;;16.00;10.70;;;;;;;26.24;71.39;99088.98;79697;1298;3013051;-68
2023/08/11 08:42:41;;;;;;;14.40;10.60;;;;;;;26.05;71.77;99082.56;79665;1296;3011419;-69
2023/08/11 08:45:09;;;;;;;19.00;10.90;;;;;;;25.86;72.81;99076.81;78170;1295;3051673;-70
2023/08/11 08:47:35;;;;;;;16.20;11.60;;;;;;;25.67;73.72;99085.19;79592;1296;3013541;-70
2023/08/11 08:50:03;;;;;;;17.20;12.00;;;;;;;25.47;74.91;99099.98;79644;1295;3011497;-65
2023/08/11 08:52:31;;;;;;;15.10;8.60;;;;;;;25.28;76.22;99105.39;78445;1299;3050126;-70
2023/08/11 08:55:00;;;;;;;14.70;9.70;;;;;;;25.61;75.64;99115.63;79412;1303;3013221;-69
2023/08/11 08:57:26;;;;;;;17.30;9.90;;;;;;;25.97;74.77;99125.41;79659;1298;3013986;-73
2023/08/11 08:59:55;;;;;;;19.80;11.50;;;;;;;25.86;74.86;99147.10;78468;1298;3051525;-67
2023/08/11 09:02:24;;;;;;;15.90;11.50;;;;;;;25.56;76.38;99177.30;79785;1294;3014495;-67
2023/08/11 09:04:53;;;;;;;13.10;10.10;;;;;;;25.09;78.24;99192.14;78986;1296;3013168;-68
2023/08/11 09:07:20;;;;;;;16.90;9.90;;;;;;;24.57;80.70;99208.66;79652;1298;3015746;-68
2023/08/11 09:09:47;;;;;;;16.90;10.10;;;;;;;24.15;83.48;99219.79;79656;1299;3013207;-68
2023/08/11 09:12:14;;;;;;;14.50;8.20;;;;;;;23.98;85.35;99231.25;78532;1298;3028509;-67
2023/08/11 09:14:42;;;;;;;16.70;9.20;;;;;;;24.24;85.17;99242.15;79868;1298;3013439;-69
2023/08/11 09:17:08;;;;;;;14.10;10.00;;;;;;;24.57;83.45;99249.85;79554;1298;3011621;-71
2023/08/11 09:19:37;;;;;;;15.40;11.30;;;;;;;24.26;84.37;99255.89;78529;1298;3025945;-68
2023/08/11 09:22:10;;;;;;;19.10;12.30;;;;;;;23.92;86.18;99226.91;79532;1300;3015921;-70
2023/08/11 09:24:40;;;;;;;21.80;16.10;;;;;;;23.69;87.92;99199.01;78325;1298;3052240;-70
2023/08/11 09:27:07;;;;;;;14.80;8.30;;;;;;;23.40;89.28;99193.05;79615;1295;3011405;-68
2023/08/11 09:29:34;;;;;;;12.60;6.90;;;;;;;23.69;87.47;99204.04;79797;1296;3011808;-68
2023/08/11 09:32:02;;;;;;;11.40;6.60;;;;;;;23.95;84.15;99210.11;78399;1298;3055556;-71
2023/08/11 09:34:29;;;;;;;13.80;6.80;;;;;;;23.85;82.98;99200.15;79641;1296;3013180;-67
2023/08/11 09:36:56;;;;;;;11.30;7.30;;;;;;;23.67;83.75;99191.10;79700;1296;3011553;-66
2023/08/11 09:39:27;;;;;;;11.80;7.10;;;;;;;23.51;84.39;99176.05;78294;1301;3052838;-68
2023/08/11 09:41:54;;;;;;;9.00;5.00;;;;;;;23.39;85.17;99165.61;79573;1298;3011648;-67
2023/08/11 09:44:22;;;;;;;8.80;6.10;;;;;;;23.86;84.49;99157.40;78501;1301;3025922;-72
2023/08/11 09:46:49;;;;;;;10.70;6.80;;;;;;;24.25;83.10;99159.08;79558;1295;3013127;-70
2023/08/11 09:49:16;;;;;;;11.10;7.70;;;;;;;24.18;83.03;99156.56;79500;1295;3011614;-69
2023/08/11 09:51:44;;;;;;;13.20;8.70;;;;;;;23.95;83.64;99155.58;78260;1298;3052762;-69
2023/08/11 09:54:11;;;;;;;12.20;8.00;;;;;;;23.66;84.96;99145.63;79599;1301;3013486;-69
2023/08/11 09:56:39;;;;;;;12.80;7.00;;;;;;;23.50;85.29;99138.94;79769;1298;3013370;-66
2023/08/11 09:59:11;;;;;;;6.10;4.50;;;;;;;23.37;85.31;99133.39;78571;1295;3068289;-72
2023/08/11 10:01:38;;;;;;;10.40;6.10;;;;;;;23.76;84.27;99129.38;79743;1296;3012894;-67
2023/08/11 10:04:07;;;;;;;8.50;5.90;;;;;;;24.11;82.40;99123.39;78152;1301;3028154;-68
2023/08/11 10:06:35;;;;;;;11.00;6.30;;;;;;;24.13;82.14;99113.13;79608;1295;3013095;-71
2023/08/11 10:09:02;;;;;;;11.90;6.20;;;;;;;23.96;82.86;99103.52;79558;1298;3013434;-70
2023/08/11 10:11:32;;;;;;;10.30;7.00;;;;;;;23.77;83.63;99097.60;78501;1299;3050676;-69
2023/08/11 10:13:59;;;;;;;10.90;7.20;;;;;;;23.55;84.58;99087.77;79900;1298;3012983;-68
2023/08/11 10:16:26;;;;;;;9.80;5.20;;;;;;;23.41;85.60;99083.17;79742;1295;3013395;-68
2023/08/11 10:18:53;;;;;;;10.30;6.60;;;;;;;23.77;84.87;99066.38;78231;1296;3055127;-69
2023/08/11 10:21:20;;;;;;;8.90;6.80;;;;;;;24.13;82.83;99050.70;79576;1294;3015990;-70
2023/08/11 10:23:46;;;;;;;13.10;8.30;;;;;;;24.22;82.46;99034.73;79612;1299;3011566;-71
2023/08/11 10:26:14;;;;;;;14.00;8.10;;;;;;;24.00;82.60;99021.48;78364;1301;3026433;-73
2023/08/11 10:28:40;;;;;;;17.70;9.50;;;;;;;23.78;83.38;98999.17;79601;1301;3012913;-74
2023/08/11 10:31:07;;;;;;;11.00;8.20;;;;;;;23.48;84.54;98964.61;79605;1298;3011644;-67
2023/08/11 10:33:35;;;;;;;11.60;7.10;;;;;;;23.31;85.69;98920.42;78364;1298;3027837;-69
2023/08/11 10:36:02;;;;;;;12.70;8.10;;;;;;;23.56;85.90;98922.88;79744;1298;3012971;-67
2023/08/11 10:38:30;;;;;;;12.50;9.40;;;;;;;23.85;85.27;98960.05;79760;1299;3011627;-70
2023/08/11 10:41:03;;;;;;;17.10;10.10;;;;;;;23.87;85.03;99008.88;78583;1295;3050914;-66
2023/08/11 10:43:32;;;;;;;16.20;9.90;;;;;;;23.76;85.49;99006.89;79641;1299;3011248;-71
2023/08/11 10:46:23;;;;;;;15.90;9.90;;;;;;;23.62;85.92;98976.41;78327;1298;3068676;-65
2023/08/11 10:48:52;;;;;;;9.50;6.90;;;;;;;23.53;86.53;98973.16;78398;1299;3051582;-70
2023/08/11 10:51:23;;;;;;;9.80;7.10;;;;;;;24.09;83.43;98957.81;79584;1296;3013476;-66
2023/08/11 10:53:51;;;;;;;12.00;7.70;;;;;;;24.48;80.78;98938.88;78346;1301;3053382;-70
2023/08/11 10:56:29;;;;;;;13.10;9.20;;;;;;;24.52;79.90;98938.73;79644;1304;3019094;-67
2023/08/11 10:59:16;;;;;;;12.50;10.40;;;;;;;24.46;80.39;98935.39;78215;1305;3054793;-71
2023/08/11 11:01:45;;;;;;;15.80;11.20;;;;;;;24.34;81.50;98932.30;78736;1298;3068624;-72
2023/08/11 11:04:12;;;;;;;10.10;7.00;;;;;;;24.35;82.71;98937.92;79668;1307;3012887;-72
2023/08/11 11:06:39;;;;;;;14.00;8.90;;;;;;;25.17;79.85;98940.49;79614;1299;3011798;-66
2023/08/11 11:09:08;;;;;;;14.40;9.40;;;;;;;25.98;76.54;98932.88;78404;1299;3053200;-70
2023/08/11 11:11:36;;;;;;;23.50;9.40;;;;;;;26.20;74.17;98924.05;79674;1298;3012960;-73
2023/08/11 11:14:06;;;;;;;16.80;9.50;;;;;;;26.06;74.86;98921.69;79018;1298;3011587;-70
2023/08/11 11:16:32;;;;;;;9.90;8.60;;;;;;;25.89;75.77;98924.21;79875;1298;3013000;-73
2023/08/11 11:19:00;;;;;;;12.70;9.60;;;;;;;25.76;74.44;98931.42;79459;1299;3011365;-72
2023/08/11 11:21:28;;;;;;;14.40;10.00;;;;;;;25.80;74.51;98941.36;78382;1296;3055902;-74
2023/08/11 11:23:55;;;;;;;12.50;7.70;;;;;;;25.53;75.35;98944.00;79661;1300;3012808;-72
2023/08/11 11:26:26;;;;;;;11.20;8.80;;;;;;;26.10;74.47;98945.30;80145;1302;3011913;-74
2023/08/11 11:28:55;;;;;;;13.60;9.80;;;;;;;26.42;73.23;98944.64;80772;1295;3051905;-72
2023/08/11 11:31:22;;;;;;;12.20;8.70;;;;;;;26.28;72.57;98951.19;79773;1308;3013112;-73
2023/08/11 11:33:49;;;;;;;10.10;8.80;;;;;;;26.25;72.88;98946.77;80473;1303;3011630;-74
2023/08/11 11:36:18;;;;;;;12.30;9.90;;;;;;;26.45;72.73;98947.69;79098;1301;3057632;-72
2023/08/11 11:38:45;;;;;;;17.80;9.20;;;;;;;26.54;71.78;98951.42;79712;1302;3015847;-71
2023/08/11 11:41:18;;;;;;;13.50;10.30;;;;;;;26.35;72.28;98966.23;79541;1296;3011853;-73
2023/08/11 11:43:47;;;;;;;12.40;8.60;;;;;;;26.14;73.13;98976.29;78341;1302;3051395;-71
2023/08/11 11:46:14;;;;;;;12.30;6.00;;;;;;;26.02;73.92;98977.42;79617;1298;3014811;-75
2023/08/11 11:48:44;;;;;;;10.60;7.40;;;;;;;26.44;72.92;98984.77;79558;1301;3011606;-71
2023/08/11 11:51:13;;;;;;;11.10;8.40;;;;;;;26.69;71.22;98996.77;78389;1298;3056951;-72
2023/08/11 11:53:40;;;;;;;19.70;8.90;;;;;;;26.59;71.17;99008.34;79693;1295;3013442;-71
2023/08/11 11:56:07;;;;;;;15.50;8.80;;;;;;;26.13;71.78;99009.36;79513;1300;3011542;-70
2023/08/11 11:58:38;;;;;;;10.30;8.30;;;;;;;25.91;72.96;99010.13;78353;1297;3052073;-73
2023/08/11 12:01:11;;;;;;;11.10;8.60;;;;;;;25.73;72.85;99033.77;79569;1298;3013591;-73
2023/08/11 12:03:39;;;;;;;10.90;8.90;;;;;;;25.49;73.61;99071.12;78315;1296;3067960;-73
2023/08/11 12:06:07;;;;;;;15.70;9.40;;;;;;;25.26;74.72;99085.55;79637;1298;3013108;-72
2023/08/11 12:08:35;;;;;;;11.10;8.70;;;;;;;25.04;75.99;99085.85;79593;1294;3011748;-73
2023/08/11 12:11:03;;;;;;;9.90;6.60;;;;;;;24.89;77.12;99089.02;78324;1295;3053286;-73
2023/08/11 12:13:30;;;;;;;12.20;7.30;;;;;;;25.30;76.12;99088.50;79604;1301;3013299;-71
2023/08/11 12:15:58;;;;;;;10.00;7.60;;;;;;;25.73;74.58;99090.35;79518;1301;3013016;-74
2023/08/11 12:18:28;;;;;;;13.00;8.70;;;;;;;25.75;74.22;99100.82;78372;1299;3068963;-73
2023/08/11 12:20:57;;;;;;;12.00;8.50;;;;;;;25.47;75.52;99106.73;79656;1296;3011517;-72
2023/08/11 12:23:26;;;;;;;12.10;9.50;;;;;;;25.32;76.29;99107.20;78332;1301;3057716;-73
2023/08/11 12:25:53;;;;;;;13.20;8.70;;;;;;;25.16;76.96;99113.31;79642;1299;3013054;-73
2023/08/11 12:28:20;;;;;;;9.60;7.90;;;;;;;25.05;77.77;99123.02;79537;1299;3011284;-71
2023/08/11 12:30:48;;;;;;;6.70;5.20;;;;;;;24.97;77.91;99121.48;78325;1308;3052250;-72
2023/08/11 12:33:17;;;;;;;7.70;5.30;;;;;;;25.48;75.12;99117.73;79710;1298;3021396;-72
2023/08/11 12:35:47;;;;;;;8.70;4.70;;;;;;;25.90;71.96;99119.96;79031;1296;3011412;-70
2023/08/11 12:38:15;;;;;;;6.80;5.00;;;;;;;25.96;70.79;99126.65;79720;1300;3013441;-72
2023/08/11 12:40:42;;;;;;;7.10;5.20;;;;;;;25.84;70.49;99123.88;79573;1307;3013811;-72
2023/08/11 12:43:11;;;;;;;6.40;5.00;;;;;;;25.76;70.84;99120.56;78386;1295;3052946;-70